YJER weather

Jerilderie Airport
New South Wales, Australia

Public forecast

Using degrees Celsius for public forecast. Weather courtesy of forecast.io.

METAR (pilot weather report)

Report is more than 2 hours old.

Closest report is Narrandera Airport, 55.7 nm (103.2 km) NE. Retrieved 2019/03/26 18:00 UTC (2 hours ago):

YNAR 261800Z AUTO 00000KT 9999 // NCD 07/04 Q1022

TAF (pilot weather forecast)

Forecast is more than 12 hours old.

Closest forecast is Wangaratta Airport, 68.9 nm (127.6 km) SSE. Retrieved 2019/03/26 02:03 UTC (18 hours ago):

TAF YWGT 260016Z 2602/2614 24012KT 9999 SCT045 FM260700 20007KT CAVOK FM261100 VRB05KT CAVOK